Moyenne distance avant la Nationale NE Dijon 27/03/2010 - D

Date : 27/03/2010

Place Nom Licence Catégorie Club Temps Points
1 BOUSSER Etienne 1843 H60 7701IF 0:19:47 6334
2 POIROT Delphine 15979 D16 8809GE 0:20:31 6108
3 BEAUVISAGE Lauriane 11307 D16 7807IF 0:23:12 5401
4 CORDIER Jacques 3312 H60 5702GE 0:23:21 5367
5 TAILLANDIER Guy 1583 H65 0801GE 0:23:55 5239
6 PREVOST Pascale 922 D50 7707IF 0:24:09 5189
7 DEVRIEUX Naïs 7672 D16 4203AR 0:25:45 4866
8 PONCET Jean-Pierre 16756 H60 3913BF 0:25:50 4851
9 LOTERIE Laurine 7045 D16 5907HF 0:26:13 4780
10 DENAIX Lou 7711 D16 7403AR 0:26:27 4738
11 HUMMEL-AZAIS Margaux 18432 D16 7403AR 0:27:14 4601
12 SCHMITT Denys 3323 H60 3809AR 0:27:18 4590
13 ABISSE Jacques 703 H65 2508BF 0:27:39 4532
14 AUBRY Maurice 1509 H60 5402GE 0:27:42 4524
15 VOGT Claude 2558 H60 6709GE 0:27:44 4518
16 MARCHESIN Sylvie 1487 D50 5702GE 0:27:52 4497
17 BONNET Christine 2400 D55 5402GE 0:28:18 4428
18 LETOUBLON Andrea 6706 D16 7404AR 0:28:23 4415
19 VAGNER Christine 3651 D55 5702GE 0:28:25 4410
20 REYNAUD Renée 8868 D50 6307AR 0:28:30 4397
21 COLOMBET Christian 3163 H65 2108BF 0:28:33 4389
22 ANTOINE Alain 1270 H60 2605AR 0:28:33 4389
23 COMBET Annie 813 D50 4203AR 0:28:41 4369
24 PATURET Bertrand 2878 H60 6009HF 0:28:44 4361
25 LEPERQUE Ophelie 20200 D16 6208HF 0:28:52 4341
26 MONNERIE Charlotte 20246 D16 3705CE 0:29:03 4314
27 JOUZEAU Georges 9472 H60 7404AR 0:29:09 4299
28 VUILLET Christian 2712 H60 2105BF 0:29:13 4289
29 LE ROUX Jacques 2857 H60 3502BR 0:29:35 4236
30 MASSON Michel 4317 H60 6701GE 0:29:45 4212
31 EJSMONT Jean 5597 H60 6208HF 0:30:11 4152
32 MORLON Louise 7788 D16 5702GE 0:30:20 4131
33 MOREL Eugenie 15479 D16 5407GE 0:30:23 4124
34 HUMBERTCLAUDE J-Paul 16205 H60 5909HF 0:30:25 4120
35 DEVILLE Nelly 2401 D60 5402GE 0:30:46 4073
36 VANOVERBERGHE Camille 21323 D16 6208HF 0:30:46 4073
37 ANNE Roger 1673 H60 0103AR 0:30:50 4064
38 RIETHMULLER Mathilde 19219 D16 6806GE 0:30:51 4062
39 ROSINI Veronique 989 D50 0801GE 0:31:16 4008
40 CAMPBELL Jane 17406 D50 7807IF 0:31:24 3991
41 SIMONET Jean 930 H65 7707IF 0:31:50 3936
42 LEPETIT Michel 571 H60 4504CE 0:31:53 3930
43 GATY Daniele 841 D55 4203AR 0:32:01 3914
44 LOCUSSE Robert 2530 H60 5703GE 0:32:05 3906
45 LEMERCIER Bernard 1178 H60 5407GE 0:32:14 3888
46 AMET Marion 14575 D16 8809GE 0:32:20 3876
47 ARNOULD Chantal 3288 D55 8809GE 0:32:23 3870
48 ROBERT Christian 1086 H60 7004BF 0:32:43 3830
49 SOL Michel 933 H60 7707IF 0:32:58 3801
50 COLIN Camille 10909 D16 6806GE 0:33:01 3795
51 PERICHON Bernard 1993 H60 7707IF 0:33:13 3773
52 DEFIX Anne-Claire 21435 D16 4203AR 0:33:32 3737
53 RUAUD Alain 740 H60 2508BF 0:33:43 3717
54 ANTOINE Regis 1276 H70 7108BF 0:33:47 3709
55 ANNE Brigitte 1672 D55 0103AR 0:34:03 3680
56 DODIN Yves 4391 H60 8809GE 0:34:04 3678
57 ENARD Yves 2666 H60 2101BF 0:34:16 3657
58 BIHEL Julia 14738 D16 4203AR 0:34:21 3648
59 GANZITTI Alexandre 3108 H60 9006BF 0:34:23 3645
60 VILLEDIEU Martine 13752 D55 6913AR 0:34:24 3643
61 CHARDOT Julia 19345 D16 7807IF 0:34:49 3599
62 CAMAS Mandye 19238 D16 5907HF 0:35:03 3575
63 GUILMAIN Melanie 20572 D16 6208HF 0:35:23 3542
64 THIEBAULT J-Philippe 5533 H60 6804GE 0:35:35 3522
65 MASCARELL Henri 8928 H60 6911AR 0:35:45 3505
66 SCHMITT-POUPARD Florence 12056 D55 6913AR 0:35:55 3489
67 PERONNO Annie 9477 D50 2104BF 0:35:59 3482
68 ENARD Monique 2664 D55 2101BF 0:36:15 3457
69 LEMBLE Andre 2263 H65 6701GE 0:36:17 3454
70 ROBERT Martine 1087 D60 7004BF 0:36:26 3439
71 BOUVERET Michelle 12102 D55 2517BF 0:36:32 3430
72 CHEVRY Armand 2457 H60 5407GE 0:36:38 3421
73 HODSON Michael 2404 H70 5402GE 0:36:39 3419
74 TESSIER Daniel 2006 H60 7709IF 0:36:56 3393
75 BOULANGER Isabelle 10639 D50 5907HF 0:37:02 3384
76 PAPON Krystell 1399 D21 6803GE 0:37:04 3381
77 BENACEK Vaclav 2368 H65 6806GE 0:37:27 3346
78 CHALOPIN Catherine 3674 D55 2105BF 0:37:39 3328
79 EUZEN J-Paul 16403 H70 6911AR 0:37:49 3314
80 POURRE Marion 10077 D16 2508BF 0:37:58 3301
81 SOUCAT Elodie 22319 D21 7720IF 0:37:58 3301
82 JEANPIERRE M-Therese 3302 D65 8809GE 0:38:01 3296
83 ROBERT Francoise 6491 D60 6913AR 0:38:05 3290
84 RICHARD Nicole 14245 D60 0207HF 0:38:13 3279
85 CHARIAU Michel 3356 H60 7715IF 0:38:13 3279
86 LELOUP Anouk 8108 D16 7305AR 0:38:18 3272
87 GOLEC Zoé 20439 D16 6205HF 0:38:23 3265
88 LEFRANÇOIS Gérard 1938 H60 9502IF 0:38:31 3253
89 BERGER M-Jose 7182 D60 5703GE 0:38:34 3249
90 MAIRE Candice 20170 D16 8807GE 0:38:51 3225
91 DEUBELBEISS Alain 5508 H60 6307AR 0:38:54 3221
92 OUDIN M-Reine 7574 D60 6804GE 0:39:14 3194
93 ROLLET Daniel 2411 H65 5415GE 0:39:15 3193
94 DIEUDONNE Roland 1381 H65 7808IF 0:39:40 3159
95 PAOLUCCI Christiane 4378 D50 5703GE 0:40:20 3107
96 HABAUZIT Yannick 21968 H18 2606AR 0:40:52 3066
97 DUVAL Jacques 2524 H60 5703GE 0:40:55 3063
98 ARMBRUSTER Marie 2952 D50 2508BF 0:40:57 3060
99 CRESPIN Aline 20590 D16 3705CE 0:41:04 3051
100 MAKOVICKA Elsa 6779 D16 6804GE 0:41:36 3012
101 VOGT Christiane 2557 D60 6709GE 0:42:01 2982
102 MULLER Raymond 352 H70 9006BF 0:42:38 2939
103 HABERKORN Didier 2716 H70 2105BF 0:42:52 2923
104 KIEFFER J-Paul 2679 H60 2101BF 0:43:02 2912
105 PAOLUCCI Rene-Claude 4377 H60 5703GE 0:43:21 2891
106 LEPAGE Violaine 22904 D16 0801GE 0:43:26 2885
107 PELLETIER Christine 20020 D40 2105BF 0:44:00 2848
108 ASTRADE Blandine 15411 D40 7305AR 0:44:04 2844
109 LECOYER Annick 2885 D55 0207HF 0:45:17 2767
110 ABISSE Gisele 701 D65 2508BF 0:45:29 2755
111 MOUCHETTE Regine 2539 D55 5703GE 0:46:29 2696
112 PITAVAL Sylvie 12060 D50 4201AR 0:46:42 2683
113 PROST Gisele 2182 D60 9307IF 0:47:43 2626
114 THIEBAULD Georges 4389 H70 8809GE 0:48:12 2600
115 RIAULT Bernard 2555 H65 6804GE 0:48:34 2580
116 DUBOIS Sylvie 14002 D50 7709IF 0:48:58 2559
117 RENARD Christine 2689 D50 2101BF 0:49:13 2546
118 RIFFARD J-Claude 2445 H65 5702GE 0:49:29 2532
119 THIERRY-FISCHER Chri 363 D55 6803GE 0:49:51 2514
120 WOEHRLE Gilbert 370 H65 6803GE 0:50:30 2481
121 GUETIN Michel 2674 H70 2101BF 0:50:39 2474
122 LEMERCIER Jocelyne 2474 D55 5407GE 0:50:40 2473
123 RIFFARD M-Lucie 2446 D65 5702GE 0:50:53 2463
124 POGU Paulette 4671 D60 5402GE 0:51:44 2422
125 PROST Daniel 2181 H65 9307IF 0:51:45 2421
126 CURT Daniel 7204 H60 5702GE 0:52:17 2397
127 DODIN Genevieve 4392 D60 8809GE 0:53:33 2340
128 THIEBAUT Evelyne 16129 D50 5702GE 0:53:33 2340
129 ARROQUI Philippe 22651 H40 5909HF 0:54:02 2319
130 VERDIN Alix 15276 D16 7109BF 0:54:09 2314
131 SIMONET Marie 931 D60 7707IF 0:54:17 2308
132 ETIENNE Bernadette 15324 D60 8807GE 0:54:26 2302
133 DENIS Martine 12377 D60 9307IF 0:55:10 2271
134 SUTTER Odile 2387 D50 6806GE 0:55:18 2266
135 GEROMEY Dominique 3717 H60 8809GE 0:55:20 2265
136 VELLAT Christine 11104 D50 4203AR 0:55:30 2258
137 RUAUD Agnes 739 D55 2508BF 0:55:52 2243
138 DESAINTJAN Claude 2547 H70 6804GE 0:57:06 2195
139 TESSIER Ariane 2004 D55 7709IF 0:57:11 2191
140 KIEFFER Mireille 2680 D60 2101BF 0:57:50 2167
141 MOULIERE M-Bernadette 2888 D65 0207HF 0:59:34 2104
142 CERET Martine 4597 D50 4203AR 1:01:26 2040
143 PASCAUD Claire 3185 D60 9006BF 1:02:05 2018
144 ROLLET Marie-Madeleine 2413 D60 5415GE 1:02:20 2010
145 GREVET Claudie 15296 D50 6806GE 1:03:35 1971
146 VESCOVO Odile 368 D60 6803GE 1:08:15 1836
147 DESAINTJAN Alice 2546 D70 6804GE 1:10:22 1781
148 THIEBAULT M-Paule 4490 D60 6804GE 1:13:18 1710
149 BASTIEN-FATH Nicole 8954 D60 5413GE 1:15:46 1654
150 FISCHER M-Dominique 340 D50 6803GE 1:19:40 1573
151 DINET Robert 16987 H65 2101BF 1:24:42 1479
152 BROSSAUD Gabriel 2660 H70 2101BF 1:36:16 1302
153 BERION Marie-Josephe 23056 D50 2508BF 1:59:52 1045
LUDEWIG-JAMES Carol 15894 D70 5907HF pm 0
DIEUDONNE Madeleine 1380 D60 7808IF pm 0
MERLE Manon 22693 D21 4201AR pm 0
CHARON Catherine 15832 D35 4201AR pm 0
FALCOZ Estelle 20410 D16 7305AR pm 0